Latest Weather Observations for Dum In Mirrie

IDD60901

Issued at 4:25 pm CST Sunday 26 October 2014 (issued every 10 minutes, with the page automatically refreshed every 10 minutes)

About weather observations | Map of Darwin area stations | Latest observations for Darwin area | Other Formats
Station Details ID: 014277 Name: DUM IN MIRRIE AIRSTRIP Lat: -12.63 Lon: 130.37 Height: 3.5 m
Data from the previous 72 hours. | See also: Recent months at Dum In Mirrie
Date/Time
CST
Tmp

°C
App
Tmp
°C
Dew
Point
°C
Rel
Hum
%
Delta-T

°C
Wind Press
QNH
hPa
Press
MSL
hPa
Rain
since
9 am
mm
Dir
 
Spd
km/h
Gust
km/h
Spd
kts
Gust
kts
26/04:00pm 31.4 33.9 22.4 59 6.1 W 13 20 7 11 1009.5 1009.5 0.0
26/03:30pm 31.4 33.7 22.1 57 6.3 W 13 22 7 12 1009.7 1009.7 0.0
26/03:00pm 31.2 32.9 21.7 57 6.4 W 15 24 8 13 1009.9 1009.9 0.0
26/02:30pm 31.5 33.4 21.4 55 6.8 WNW 13 22 7 12 1010.4 1010.4 0.0
26/02:00pm 32.0 34.0 21.5 53 7.1 WNW 13 20 7 11 1010.8 1010.8 0.0
26/01:30pm 32.0 34.7 22.1 55 6.7 WNW 11 20 6 11 1011.3 1011.3 0.0
26/01:00pm 32.1 35.0 22.5 57 6.6 WNW 11 20 6 11 1012.1 1012.1 0.0
26/12:30pm 31.4 34.1 22.1 57 6.3 WNW 11 19 6 10 1012.6 1012.6 0.0
26/12:00pm 31.1 34.2 22.1 58 6.1 WNW 9 19 5 10 1013.0 1013.0 0.0
26/11:30am 29.8 33.6 22.8 66 4.8 WNW 7 13 4 7 1013.6 1013.6 0.0
26/11:00am 29.5 32.8 22.5 66 4.8 WNW 9 15 5 8 1014.1 1014.1 0.0
26/10:30am 29.9 33.6 22.6 65 5.0 WNW 7 11 4 6 1014.5 1014.5 0.0
26/10:00am 28.8 32.3 21.8 66 4.7 WNW 6 9 3 5 1014.7 1014.7 0.0
26/09:30am 29.3 33.3 22.0 64 4.9 NW 4 11 2 6 1014.7 1014.7 0.0
26/09:00am 30.7 34.6 22.6 62 5.5 NW 6 9 3 5 1014.7 1014.7 0.0
26/08:30am 29.4 32.9 21.9 64 5.1 N 6 9 3 5 1014.6 1014.6 0.0
26/08:00am 28.7 32.7 22.0 67 4.5 N 4 7 2 4 1014.2 1014.2 0.0
26/07:30am 28.1 33.0 22.3 70 3.9 CALM 0 0 0 0 1013.9 1013.9 0.0
26/07:00am 25.9 30.1 21.8 78 2.7 NE 2 6 1 3 1013.6 1013.6 0.0
26/06:30am 24.9 28.8 20.4 76 2.9 CALM 0 0 0 0 1013.4 1013.4 0.0
26/06:00am 26.2 30.2 20.5 71 3.7 NNW 0 0 0 0 1013.0 1013.0 0.0
26/05:30am 27.1 30.7 21.2 70 3.9 N 4 7 2 4 1012.7 1012.7 0.0
26/05:00am 27.1 30.8 21.4 71 3.8 NNE 4 9 2 5 1012.7 1012.7 0.0
26/04:30am 27.0 30.1 21.5 72 3.7 NNE 7 13 4 7 1012.6 1012.6 0.0
26/04:00am 27.1 30.0 21.8 73 3.5 NE 9 15 5 8 1012.7 1012.7 0.0
26/03:30am 27.3 30.9 22.0 73 3.6 NNE 6 11 3 6 1012.6 1012.6 0.0
26/03:00am 27.2 30.6 21.7 72 3.7 N 6 11 3 6 1012.5 1012.5 0.0
26/02:30am 27.6 31.2 22.1 72 3.7 N 6 11 3 6 1012.7 1012.7 0.0
26/02:00am 27.5 31.0 21.8 71 3.8 N 6 9 3 5 1012.9 1012.9 0.0
26/01:30am 27.9 31.1 21.7 69 4.2 N 7 15 4 8 1012.9 1012.9 0.0
26/01:00am 27.9 30.9 21.9 70 4.0 NNW 9 17 5 9 1013.0 1013.0 0.0
26/12:30am 28.1 31.7 22.3 70 3.9 NNW 7 17 4 9 1013.2 1013.2 0.0
26/12:00am 28.1 31.7 22.3 70 3.9 NNW 7 15 4 8 1013.3 1013.3 0.0
 
Date/Time
CST
Tmp

°C
App
Tmp
°C
Dew
Point
°C
Rel
Hum
%
Delta-T

°C
Wind Press
QNH
hPa
Press
MSL
hPa
Rain
since
9 am
mm
Dir
 
Spd
km/h
Gust
km/h
Spd
kts
Gust
kts
25/11:30pm 27.0 30.2 20.6 68 4.2 NNW 4 7 2 4 1013.6 1013.6 0.0
25/11:00pm 27.9 31.2 20.7 65 4.8 NW 4 6 2 3 1013.8 1013.8 0.0
25/10:30pm 28.3 31.4 21.1 65 4.8 NNW 6 7 3 4 1013.6 1013.6 0.0
25/10:00pm 28.5 31.7 21.3 65 4.8 NW 6 9 3 5 1013.4 1013.4 0.0
25/09:30pm 28.7 32.1 21.7 66 4.7 W 6 9 3 5 1013.0 1013.0 0.0
25/09:00pm 29.0 32.2 21.7 64 4.9 WSW 7 13 4 7 1012.9 1012.9 0.0
25/08:30pm 29.1 31.8 21.3 62 5.2 SW 9 17 5 9 1012.4 1012.4 0.0
25/08:00pm 29.0 31.1 21.0 62 5.3 SW 11 15 6 8 1012.0 1012.0 0.0
25/07:30pm 28.9 31.7 20.9 62 5.3 W 7 13 4 7 1011.8 1011.8 0.0
25/07:00pm 28.8 31.9 20.3 60 5.6 W 4 9 2 5 1011.6 1011.6 0.0
25/06:30pm 29.3 31.7 19.6 56 6.3 WNW 6 9 3 5 1011.3 1011.3 0.0
25/06:00pm 30.3 33.0 20.2 54 6.7 W 6 9 3 5 1011.1 1011.1 0.0
25/05:30pm 30.7 32.9 19.7 52 7.2 NW 7 11 4 6 1011.0 1011.0 0.0
25/05:00pm 30.9 33.0 20.2 53 7.1 WNW 9 15 5 8 1010.8 1010.8 0.0
25/04:30pm 31.1 33.3 20.4 53 7.1 NW 9 15 5 8 1010.8 1010.8 0.0
25/04:00pm 31.4 33.9 21.0 54 7.0 WNW 9 19 5 10 1011.1 1011.1 0.0
25/03:30pm 31.2 33.5 21.4 56 6.6 NW 11 19 6 10 1011.3 1011.3 0.0
25/03:00pm 31.7 33.7 21.5 54 6.9 NW 13 24 7 13 1011.6 1011.6 0.0
25/02:30pm 31.3 33.3 21.5 56 6.6 NNW 13 22 7 12 1011.6 1011.6 0.0
25/02:00pm 32.4 34.7 21.3 52 7.5 NNW 11 22 6 12 1011.8 1011.8 0.0
25/01:30pm 31.9 33.8 22.0 55 6.7 NW 15 24 8 13 1012.1 1012.1 0.0
25/01:00pm 31.4 34.1 22.1 57 6.3 NNW 11 20 6 11 1012.5 1012.5 0.0
25/12:30pm 31.4 33.4 21.6 56 6.6 NNW 13 22 7 12 1013.1 1013.1 0.0
25/12:00pm 32.5 34.6 21.7 53 7.3 N 13 22 7 12 1013.5 1013.5 0.0
25/11:30am 32.7 34.3 19.9 46 8.5 ENE 11 22 6 12 1014.0 1014.0 0.0
25/11:00am 32.5 34.7 20.4 49 8.1 NE 9 19 5 10 1014.4 1014.4 0.0
25/10:30am 31.1 33.5 20.1 52 7.3 NNE 7 15 4 8 1014.9 1014.9 0.0
25/10:00am 30.7 33.0 20.6 54 6.7 ENE 9 17 5 9 1015.2 1015.2 0.0
25/09:30am 30.8 33.0 20.4 54 6.9 E 9 17 5 9 1015.3 1015.3 0.0
25/09:00am 29.7 31.7 20.8 58 5.9 E 11 17 6 9 1015.4 1015.4 0.0
25/08:30am 29.5 31.2 20.9 60 5.7 E 13 19 7 10 1015.4 1015.4 0.0
25/08:00am 29.1 31.1 20.8 61 5.5 E 11 15 6 8 1015.2 1015.2 0.0
25/07:30am 28.5 31.6 21.0 64 5.0 ENE 6 11 3 6 1014.9 1014.9 0.0
25/07:00am 27.1 30.1 21.2 70 3.9 E 7 13 4 7 1014.6 1014.6 0.0
25/06:30am 25.8 29.7 21.2 76 3.0 NE 2 4 1 2 1014.1 1014.1 0.0
25/06:00am 26.2 29.6 21.6 76 3.1 NNE 6 9 3 5 1013.7 1013.7 0.0
25/05:30am 26.4 29.8 21.6 75 3.2 NNE 6 9 3 5 1013.4 1013.4 0.0
25/05:00am 26.4 29.7 21.4 74 3.3 NNE 6 9 3 5 1013.1 1013.1 0.0
25/04:30am 26.5 29.7 21.3 73 3.4 N 6 7 3 4 1012.9 1012.9 0.0
25/04:00am 26.4 30.0 21.2 73 3.4 NNE 4 7 2 4 1012.6 1012.6 0.0
25/03:30am 27.1 30.8 21.4 71 3.8 NE 4 7 2 4 1012.5 1012.5 0.0
25/03:00am 27.0 30.2 21.7 73 3.5 NNE 7 11 4 6 1012.4 1012.4 0.0
25/02:30am 27.2 30.5 21.9 73 3.6 N 7 13 4 7 1012.4 1012.4 0.0
25/02:00am 27.4 31.3 21.9 72 3.7 N 4 7 2 4 1012.6 1012.6 0.0
25/01:30am 27.8 30.6 21.6 69 4.1 N 9 17 5 9 1012.7 1012.7 0.0
25/01:00am 28.1 32.0 22.6 72 3.7 NNW 6 13 3 7 1013.0 1013.0 0.0
25/12:30am 28.1 31.8 22.6 72 3.7 NW 7 11 4 6 1013.0 1013.0 0.0
25/12:00am 28.0 31.6 22.0 70 4.0 NW 6 13 3 7 1012.9 1012.9 0.0
 
Date/Time
CST
Tmp

°C
App
Tmp
°C
Dew
Point
°C
Rel
Hum
%
Delta-T

°C
Wind Press
QNH
hPa
Press
MSL
hPa
Rain
since
9 am
mm
Dir
 
Spd
km/h
Gust
km/h
Spd
kts
Gust
kts
24/11:30pm 28.2 31.5 21.5 67 4.5 WNW 6 11 3 6 1013.0 1013.0 0.0
24/11:00pm 28.4 31.4 21.9 68 4.4 NW 9 15 5 8 1013.2 1013.2 0.0
24/10:30pm 28.6 31.8 22.3 68 4.3 NW 9 19 5 10 1012.9 1012.9 0.0
24/10:00pm 28.7 31.5 21.5 65 4.8 WNW 9 17 5 9 1012.7 1012.7 0.0
24/09:30pm 28.8 31.5 21.3 64 5.0 W 9 15 5 8 1012.1 1012.1 0.0
24/09:00pm 29.0 32.2 21.7 64 4.9 W 7 15 4 8 1011.9 1011.9 0.0
24/08:30pm 28.9 31.9 21.9 66 4.7 W 9 19 5 10 1011.3 1011.3 0.0
24/08:00pm 26.9 30.2 19.0 62 5.1 CALM 0 6 0 3 1010.8 1010.8 0.0
24/07:30pm 28.7 31.7 19.3 56 6.1 ENE 2 4 1 2 1010.4 1010.4 0.0
24/07:00pm 29.8 33.1 19.2 53 6.9 CALM 0 4 0 2 1010.1 1010.1 0.0
24/06:30pm 30.6 32.4 18.7 49 7.7 NNE 7 11 4 6 1009.9 1009.9 0.0
24/06:00pm 31.3 32.7 18.6 46 8.2 NNE 9 15 5 8 1009.9 1009.9 0.0
24/05:30pm 31.6 33.2 19.2 47 8.1 N 9 15 5 8 1009.8 1009.8 0.0
24/05:00pm 31.6 33.2 19.2 47 8.1 N 9 15 5 8 1009.7 1009.7 0.0
24/04:30pm 32.1 33.3 18.3 44 8.9 N 9 17 5 9 1010.0 1010.0 0.0
24/04:00pm 31.4 32.0 18.7 46 8.2 N 13 20 7 11 1010.0 1010.0 0.0
24/03:30pm 31.4 33.1 19.4 49 7.9 NNW 9 17 5 9 1010.2 1010.2 0.0
24/03:00pm 31.9 33.7 21.1 52 7.3 N 13 22 7 12 1010.2 1010.2 0.0
24/02:30pm 32.4 34.4 22.2 55 7.0 N 15 24 8 13 1010.0 1010.0 0.0
24/02:00pm 32.3 33.7 21.8 54 7.1 N 17 26 9 14 1010.1 1010.1 0.0
24/01:30pm 31.9 33.2 21.7 54 6.9 N 17 30 9 16 1010.3 1010.3 0.0
24/01:00pm 32.6 34.3 22.4 55 7.0 N 17 26 9 14 1011.0 1011.0 0.0
24/12:30pm 31.8 33.8 22.2 56 6.5 N 15 22 8 12 1011.6 1011.6 0.0
24/12:00pm 31.9 33.8 22.0 55 6.7 N 15 26 8 14 1012.3 1012.3 0.0
24/11:30am 32.7 33.6 19.2 44 8.9 NE 13 22 7 12 1012.8 1012.8 0.0
24/11:00am 32.3 34.5 20.5 49 7.9 E 9 19 5 10 1013.3 1013.3 0.0
24/10:30am 31.3 33.6 19.9 50 7.5 ENE 7 17 4 9 1013.8 1013.8 0.0
24/10:00am 30.7 33.1 20.0 52 7.1 ENE 7 17 4 9 1014.2 1014.2 0.0
24/09:30am 30.8 33.5 20.7 55 6.7 ENE 7 15 4 8 1014.1 1014.1 0.0
24/09:00am 29.9 32.8 21.0 59 5.9 NNE 7 13 4 7 1014.0 1014.0 0.0
24/08:30am 29.7 32.6 21.1 60 5.7 NNE 7 13 4 7 1013.9 1013.9 0.0
24/08:00am 29.2 32.2 21.2 62 5.3 NNE 7 11 4 6 1013.6 1013.6 0.0
24/07:30am 28.1 32.0 21.9 69 4.2 NE 4 6 2 3 1013.3 1013.3 0.0
24/07:00am 25.8 29.7 21.9 79 2.6 NNE 4 7 2 4 1013.2 1013.2 0.0
24/06:30am 24.3 27.6 20.8 81 2.3 NNE 4 6 2 3 1013.2 1013.2 0.0
24/06:00am 24.1 27.7 20.6 81 2.3 NNE 2 6 1 3 1012.8 1012.8 0.0
24/05:30am 24.1 27.3 20.6 81 2.3 NNE 4 7 2 4 1012.5 1012.5 0.0
24/05:00am 23.9 26.9 20.0 79 2.5 NNE 4 6 2 3 1012.4 1012.4 0.0
24/04:30am 25.0 28.6 20.5 76 2.9 NE 2 6 1 3 1012.5 1012.5 0.0
24/04:00am 26.0 29.3 20.8 73 3.4 NNE 4 4 2 2 1012.2 1012.2 0.0
24/03:30am 26.8 30.3 21.1 71 3.8 NE 4 6 2 3 1012.1 1012.1 0.0
24/03:00am 27.4 30.9 21.9 72 3.7 N 6 9 3 5 1012.3 1012.3 0.0
24/02:30am 27.3 31.4 22.3 74 3.4 N 4 7 2 4 1012.4 1012.4 0.0
24/02:00am 27.4 31.0 22.1 73 3.6 NNW 6 9 3 5 1012.6 1012.6 0.0
24/01:30am 27.6 30.8 21.2 68 4.3 N 6 9 3 5 1013.0 1013.0 0.0
24/01:00am 27.8 31.1 21.8 70 4.0 NNW 7 11 4 6 1012.9 1012.9 0.0
24/12:30am 27.7 31.0 21.5 69 4.1 NNW 6 11 3 6 1013.1 1013.1 0.0
24/12:00am 27.5 31.2 21.5 70 4.0 NNW 4 7 2 4 1013.4 1013.4 0.0
 
Date/Time
CST
Tmp

°C
App
Tmp
°C
Dew
Point
°C
Rel
Hum
%
Delta-T

°C
Wind Press
QNH
hPa
Press
MSL
hPa
Rain
since
9 am
mm
Dir
 
Spd
km/h
Gust
km/h
Spd
kts
Gust
kts
23/11:30pm 27.8 30.7 20.6 65 4.7 NNW 6 9 3 5 1013.5 1013.5 0.0
23/11:00pm 28.1 30.7 20.1 62 5.2 NW 6 11 3 6 1013.4 1013.4 0.0
23/10:30pm 28.4 31.2 20.4 62 5.3 WNW 6 9 3 5 1013.0 1013.0 0.0
23/10:00pm 28.7 31.6 21.0 63 5.1 W 7 15 4 8 1012.7 1012.7 0.0
23/09:30pm 28.8 31.8 20.8 62 5.3 WSW 6 15 3 8 1012.1 1012.1 0.0
23/09:00pm 28.8 31.9 21.1 63 5.1 WSW 6 11 3 6 1011.7 1011.7 0.0
23/08:30pm 28.6 31.6 20.1 60 5.6 SW 4 9 2 5 1011.3 1011.3 0.0
23/08:00pm 27.6 30.3 19.4 61 5.3 WSW 4 7 2 4 1011.1 1011.1 0.0
23/07:30pm 26.8 29.5 17.8 57 5.7 CALM 0 4 0 2 1010.8 1010.8 0.0
23/07:00pm 28.5 31.4 18.3 54 6.5 CALM 0 0 0 0 1010.6 1010.6 0.0
23/06:30pm 29.6 32.0 18.7 52 7.0 NW 4 7 2 4 1010.3 1010.3 0.0
23/06:00pm 30.5 33.0 19.8 52 7.0 WNW 6 9 3 5 1010.1 1010.1 0.0
23/05:30pm 31.0 32.1 16.6 42 9.1 NW 6 9 3 5 1009.8 1009.8 0.0
23/05:00pm 31.6 33.0 18.6 46 8.4 NNW 9 15 5 8 1009.5 1009.5 0.0
23/04:30pm 31.5 33.0 19.8 49 7.7 NW 11 19 6 10 1009.6 1009.6 0.0

Latest Capital City Observations: Canberra | Sydney | Melbourne | Brisbane | Adelaide | Perth | Hobart | Darwin

Other Formats:

Comma delimited format used in spreadsheet applications
http://www.bom.gov.au/fwo/IDD60901/IDD60901.94116.axf

JavaScript Object Notation format (JSON) in row-major order
http://www.bom.gov.au/fwo/IDD60901/IDD60901.94116.json